sensor_id;sensor_type;location;lat;lon;timestamp;temperature;humidity
18974;DHT22;9621;48.690;9.466;2023-04-03T00:00:58;2.00;99.90
18974;DHT22;9621;48.690;9.466;2023-04-03T00:03:25;2.00;99.90
18974;DHT22;9621;48.690;9.466;2023-04-03T00:05:52;1.90;99.90
18974;DHT22;9621;48.690;9.466;2023-04-03T00:08:20;1.80;99.90
18974;DHT22;9621;48.690;9.466;2023-04-03T00:10:47;1.70;99.90
18974;DHT22;9621;48.690;9.466;2023-04-03T00:13:15;1.70;99.90
18974;DHT22;9621;48.690;9.466;2023-04-03T00:15:42;1.60;99.90
18974;DHT22;9621;48.690;9.466;2023-04-03T00:18:09;1.60;99.90
18974;DHT22;9621;48.690;9.466;2023-04-03T00:20:36;1.60;99.90
18974;DHT22;9621;48.690;9.466;2023-04-03T00:23:03;1.50;99.90
18974;DHT22;9621;48.690;9.466;2023-04-03T00:25:30;1.40;99.90
18974;DHT22;9621;48.690;9.466;2023-04-03T00:27:57;1.30;99.90
18974;DHT22;9621;48.690;9.466;2023-04-03T00:30:26;1.30;99.90
18974;DHT22;9621;48.690;9.466;2023-04-03T00:32:53;1.30;99.90
18974;DHT22;9621;48.690;9.466;2023-04-03T00:35:21;1.30;99.90
18974;DHT22;9621;48.690;9.466;2023-04-03T00:37:50;1.20;99.90
18974;DHT22;9621;48.690;9.466;2023-04-03T00:40:18;1.20;99.90
18974;DHT22;9621;48.690;9.466;2023-04-03T00:42:46;1.20;99.90
18974;DHT22;9621;48.690;9.466;2023-04-03T00:45:32;1.20;99.90
18974;DHT22;9621;48.690;9.466;2023-04-03T00:48:00;1.10;99.90
18974;DHT22;9621;48.690;9.466;2023-04-03T00:50:28;1.10;99.90
18974;DHT22;9621;48.690;9.466;2023-04-03T00:52:56;1.10;99.90
18974;DHT22;9621;48.690;9.466;2023-04-03T00:55:24;1.10;99.90
18974;DHT22;9621;48.690;9.466;2023-04-03T00:57:52;1.20;99.90
18974;DHT22;9621;48.690;9.466;2023-04-03T01:00:20;1.00;99.90
18974;DHT22;9621;48.690;9.466;2023-04-03T01:02:50;1.10;99.90
18974;DHT22;9621;48.690;9.466;2023-04-03T01:05:19;1.20;99.90
18974;DHT22;9621;48.690;9.466;2023-04-03T01:07:47;1.20;99.90
18974;DHT22;9621;48.690;9.466;2023-04-03T01:10:15;1.10;99.90
18974;DHT22;9621;48.690;9.466;2023-04-03T01:12:44;1.20;99.90
18974;DHT22;9621;48.690;9.466;2023-04-03T01:15:13;1.30;99.90
18974;DHT22;9621;48.690;9.466;2023-04-03T01:17:42;1.30;99.90
18974;DHT22;9621;48.690;9.466;2023-04-03T01:20:44;1.30;99.90
18974;DHT22;9621;48.690;9.466;2023-04-03T01:23:29;1.40;99.90
18974;DHT22;9621;48.690;9.466;2023-04-03T01:25:57;1.40;99.90
18974;DHT22;9621;48.690;9.466;2023-04-03T01:28:26;1.40;99.90
18974;DHT22;9621;48.690;9.466;2023-04-03T01:31:00;1.40;99.90
18974;DHT22;9621;48.690;9.466;2023-04-03T01:33:31;1.50;99.90
18974;DHT22;9621;48.690;9.466;2023-04-03T01:35:58;1.50;99.90
18974;DHT22;9621;48.690;9.466;2023-04-03T01:38:25;1.50;99.90
18974;DHT22;9621;48.690;9.466;2023-04-03T01:40:55;1.50;99.90
18974;DHT22;9621;48.690;9.466;2023-04-03T01:43:22;1.50;99.90
18974;DHT22;9621;48.690;9.466;2023-04-03T01:45:49;1.50;99.90
18974;DHT22;9621;48.690;9.466;2023-04-03T01:48:18;1.50;99.90
18974;DHT22;9621;48.690;9.466;2023-04-03T01:50:46;1.50;99.90
18974;DHT22;9621;48.690;9.466;2023-04-03T01:53:13;1.50;99.90
18974;DHT22;9621;48.690;9.466;2023-04-03T01:55:40;1.50;99.90
18974;DHT22;9621;48.690;9.466;2023-04-03T01:58:07;1.50;99.90
18974;DHT22;9621;48.690;9.466;2023-04-03T02:00:34;1.50;99.90
18974;DHT22;9621;48.690;9.466;2023-04-03T02:03:01;1.50;99.90
18974;DHT22;9621;48.690;9.466;2023-04-03T02:05:29;1.50;99.90
18974;DHT22;9621;48.690;9.466;2023-04-03T02:07:57;1.40;99.90
18974;DHT22;9621;48.690;9.466;2023-04-03T02:10:24;1.50;99.90
18974;DHT22;9621;48.690;9.466;2023-04-03T02:12:51;1.40;99.90
18974;DHT22;9621;48.690;9.466;2023-04-03T02:15:18;1.50;99.90
18974;DHT22;9621;48.690;9.466;2023-04-03T02:17:45;1.40;99.90
18974;DHT22;9621;48.690;9.466;2023-04-03T02:20:12;1.50;99.90
18974;DHT22;9621;48.690;9.466;2023-04-03T02:22:39;1.50;99.90
18974;DHT22;9621;48.690;9.466;2023-04-03T02:25:08;1.50;99.90
18974;DHT22;9621;48.690;9.466;2023-04-03T02:27:35;1.50;99.90
18974;DHT22;9621;48.690;9.466;2023-04-03T02:30:03;1.50;99.90
18974;DHT22;9621;48.690;9.466;2023-04-03T02:32:30;1.50;99.90
18974;DHT22;9621;48.690;9.466;2023-04-03T02:34:58;1.50;99.90
18974;DHT22;9621;48.690;9.466;2023-04-03T02:37:25;1.50;99.90
18974;DHT22;9621;48.690;9.466;2023-04-03T02:39:52;1.60;99.90
18974;DHT22;9621;48.690;9.466;2023-04-03T02:42:20;1.50;99.90
18974;DHT22;9621;48.690;9.466;2023-04-03T02:44:47;1.50;99.90
18974;DHT22;9621;48.690;9.466;2023-04-03T02:47:14;1.60;99.90
18974;DHT22;9621;48.690;9.466;2023-04-03T02:49:41;1.60;99.90
18974;DHT22;9621;48.690;9.466;2023-04-03T02:52:09;1.60;99.90
18974;DHT22;9621;48.690;9.466;2023-04-03T02:54:37;1.60;99.90
18974;DHT22;9621;48.690;9.466;2023-04-03T02:57:04;1.60;99.90
18974;DHT22;9621;48.690;9.466;2023-04-03T02:59:32;1.60;99.90
18974;DHT22;9621;48.690;9.466;2023-04-03T03:01:59;1.70;99.90
18974;DHT22;9621;48.690;9.466;2023-04-03T03:04:26;1.70;99.90
18974;DHT22;9621;48.690;9.466;2023-04-03T03:06:53;1.70;99.90
18974;DHT22;9621;48.690;9.466;2023-04-03T03:09:20;1.70;99.90
18974;DHT22;9621;48.690;9.466;2023-04-03T03:11:47;1.70;99.90
18974;DHT22;9621;48.690;9.466;2023-04-03T03:14:14;1.80;99.90
18974;DHT22;9621;48.690;9.466;2023-04-03T03:16:42;1.80;99.90
18974;DHT22;9621;48.690;9.466;2023-04-03T03:19:09;1.80;99.90
18974;DHT22;9621;48.690;9.466;2023-04-03T03:21:36;1.80;99.90
18974;DHT22;9621;48.690;9.466;2023-04-03T03:24:03;1.80;99.90
18974;DHT22;9621;48.690;9.466;2023-04-03T03:26:30;1.80;99.90
18974;DHT22;9621;48.690;9.466;2023-04-03T03:28:57;1.80;99.90
18974;DHT22;9621;48.690;9.466;2023-04-03T03:31:24;1.90;99.90
18974;DHT22;9621;48.690;9.466;2023-04-03T03:33:52;1.80;99.90
18974;DHT22;9621;48.690;9.466;2023-04-03T03:36:19;1.80;99.90
18974;DHT22;9621;48.690;9.466;2023-04-03T03:38:47;1.90;99.90
18974;DHT22;9621;48.690;9.466;2023-04-03T03:41:13;1.90;99.90
18974;DHT22;9621;48.690;9.466;2023-04-03T03:43:40;1.90;99.90
18974;DHT22;9621;48.690;9.466;2023-04-03T03:46:07;1.90;99.90
18974;DHT22;9621;48.690;9.466;2023-04-03T03:48:34;1.90;99.90
18974;DHT22;9621;48.690;9.466;2023-04-03T03:51:02;1.90;99.90
18974;DHT22;9621;48.690;9.466;2023-04-03T03:53:29;2.00;99.90
18974;DHT22;9621;48.690;9.466;2023-04-03T03:55:56;2.00;99.90
18974;DHT22;9621;48.690;9.466;2023-04-03T03:58:23;1.90;99.90
18974;DHT22;9621;48.690;9.466;2023-04-03T04:00:50;2.00;99.90
18974;DHT22;9621;48.690;9.466;2023-04-03T04:03:17;2.00;99.90
18974;DHT22;9621;48.690;9.466;2023-04-03T04:05:44;2.00;99.90
18974;DHT22;9621;48.690;9.466;2023-04-03T04:08:12;2.00;99.90
18974;DHT22;9621;48.690;9.466;2023-04-03T04:10:39;2.00;99.90
18974;DHT22;9621;48.690;9.466;2023-04-03T04:13:06;2.20;99.90
18974;DHT22;9621;48.690;9.466;2023-04-03T04:15:33;2.00;99.90
18974;DHT22;9621;48.690;9.466;2023-04-03T04:18:00;2.00;99.90
18974;DHT22;9621;48.690;9.466;2023-04-03T04:20:27;2.10;99.90
18974;DHT22;9621;48.690;9.466;2023-04-03T04:22:54;2.10;99.90
18974;DHT22;9621;48.690;9.466;2023-04-03T04:25:22;2.10;99.90
18974;DHT22;9621;48.690;9.466;2023-04-03T04:27:49;2.10;99.90
18974;DHT22;9621;48.690;9.466;2023-04-03T04:30:16;2.10;99.90
18974;DHT22;9621;48.690;9.466;2023-04-03T04:32:43;2.20;99.90
18974;DHT22;9621;48.690;9.466;2023-04-03T04:35:10;2.20;99.90
18974;DHT22;9621;48.690;9.466;2023-04-03T04:37:37;2.10;99.90
18974;DHT22;9621;48.690;9.466;2023-04-03T04:40:05;2.10;99.90
18974;DHT22;9621;48.690;9.466;2023-04-03T04:42:33;2.10;99.90
18974;DHT22;9621;48.690;9.466;2023-04-03T04:45:02;2.00;99.90
18974;DHT22;9621;48.690;9.466;2023-04-03T04:47:30;2.10;99.90
18974;DHT22;9621;48.690;9.466;2023-04-03T04:49:56;2.00;99.90
18974;DHT22;9621;48.690;9.466;2023-04-03T04:52:23;2.20;99.90
18974;DHT22;9621;48.690;9.466;2023-04-03T04:54:50;2.00;99.90
18974;DHT22;9621;48.690;9.466;2023-04-03T04:57:17;2.00;99.90
18974;DHT22;9621;48.690;9.466;2023-04-03T04:59:46;2.00;99.90
18974;DHT22;9621;48.690;9.466;2023-04-03T05:02:13;2.30;99.90
18974;DHT22;9621;48.690;9.466;2023-04-03T05:04:40;2.00;99.90
18974;DHT22;9621;48.690;9.466;2023-04-03T05:07:06;2.00;99.90
18974;DHT22;9621;48.690;9.466;2023-04-03T05:09:33;2.00;99.90
18974;DHT22;9621;48.690;9.466;2023-04-03T05:12:00;2.10;99.90
18974;DHT22;9621;48.690;9.466;2023-04-03T05:14:28;2.00;99.90
18974;DHT22;9621;48.690;9.466;2023-04-03T05:16:56;2.10;99.90
18974;DHT22;9621;48.690;9.466;2023-04-03T05:19:23;2.10;99.90
18974;DHT22;9621;48.690;9.466;2023-04-03T05:21:50;2.10;99.90
18974;DHT22;9621;48.690;9.466;2023-04-03T05:24:17;2.00;99.90
18974;DHT22;9621;48.690;9.466;2023-04-03T05:26:44;2.00;99.90
18974;DHT22;9621;48.690;9.466;2023-04-03T05:29:11;1.90;99.90
18974;DHT22;9621;48.690;9.466;2023-04-03T05:31:38;1.90;99.90
18974;DHT22;9621;48.690;9.466;2023-04-03T05:34:07;1.80;99.90
18974;DHT22;9621;48.690;9.466;2023-04-03T05:36:34;1.80;99.90
18974;DHT22;9621;48.690;9.466;2023-04-03T05:39:00;1.70;99.90
18974;DHT22;9621;48.690;9.466;2023-04-03T05:41:27;1.70;99.90
18974;DHT22;9621;48.690;9.466;2023-04-03T05:43:54;1.70;99.90
18974;DHT22;9621;48.690;9.466;2023-04-03T05:46:21;1.70;99.90
18974;DHT22;9621;48.690;9.466;2023-04-03T05:48:48;1.60;99.90
18974;DHT22;9621;48.690;9.466;2023-04-03T05:51:18;1.70;99.90
18974;DHT22;9621;48.690;9.466;2023-04-03T05:53:45;1.70;99.90
18974;DHT22;9621;48.690;9.466;2023-04-03T05:56:13;1.70;99.90
18974;DHT22;9621;48.690;9.466;2023-04-03T05:58:40;1.90;99.90
18974;DHT22;9621;48.690;9.466;2023-04-03T06:01:07;1.80;99.90
18974;DHT22;9621;48.690;9.466;2023-04-03T06:03:34;1.90;99.90
18974;DHT22;9621;48.690;9.466;2023-04-03T06:06:04;1.90;99.90
18974;DHT22;9621;48.690;9.466;2023-04-03T06:08:32;1.90;99.90
18974;DHT22;9621;48.690;9.466;2023-04-03T06:11:01;2.00;99.90
18974;DHT22;9621;48.690;9.466;2023-04-03T06:13:28;2.10;99.90
18974;DHT22;9621;48.690;9.466;2023-04-03T06:15:55;2.20;99.90
18974;DHT22;9621;48.690;9.466;2023-04-03T06:18:24;2.30;99.90
18974;DHT22;9621;48.690;9.466;2023-04-03T06:20:50;2.30;99.90
18974;DHT22;9621;48.690;9.466;2023-04-03T06:23:17;2.40;99.90
18974;DHT22;9621;48.690;9.466;2023-04-03T06:25:46;2.40;99.90
18974;DHT22;9621;48.690;9.466;2023-04-03T06:28:13;2.50;99.90
18974;DHT22;9621;48.690;9.466;2023-04-03T06:30:40;2.50;99.90
18974;DHT22;9621;48.690;9.466;2023-04-03T06:33:07;2.50;99.90
18974;DHT22;9621;48.690;9.466;2023-04-03T06:35:34;2.40;99.90
18974;DHT22;9621;48.690;9.466;2023-04-03T06:38:02;2.70;99.90
18974;DHT22;9621;48.690;9.466;2023-04-03T06:40:30;2.70;99.90
18974;DHT22;9621;48.690;9.466;2023-04-03T06:42:58;2.80;99.90
18974;DHT22;9621;48.690;9.466;2023-04-03T06:45:25;2.90;99.90
18974;DHT22;9621;48.690;9.466;2023-04-03T06:47:53;3.00;99.90
18974;DHT22;9621;48.690;9.466;2023-04-03T06:50:20;3.00;99.90
18974;DHT22;9621;48.690;9.466;2023-04-03T06:52:47;3.10;99.90
18974;DHT22;9621;48.690;9.466;2023-04-03T06:55:14;3.10;99.90
18974;DHT22;9621;48.690;9.466;2023-04-03T06:57:41;3.20;99.90
18974;DHT22;9621;48.690;9.466;2023-04-03T07:00:11;3.20;99.90
18974;DHT22;9621;48.690;9.466;2023-04-03T07:02:38;3.30;99.90
18974;DHT22;9621;48.690;9.466;2023-04-03T07:05:06;3.40;99.90
18974;DHT22;9621;48.690;9.466;2023-04-03T07:07:34;3.40;99.90
18974;DHT22;9621;48.690;9.466;2023-04-03T07:10:04;3.50;99.90
18974;DHT22;9621;48.690;9.466;2023-04-03T07:12:31;3.70;99.90
18974;DHT22;9621;48.690;9.466;2023-04-03T07:14:58;3.70;99.90
18974;DHT22;9621;48.690;9.466;2023-04-03T07:17:26;3.80;99.90
18974;DHT22;9621;48.690;9.466;2023-04-03T07:19:53;3.80;99.90
18974;DHT22;9621;48.690;9.466;2023-04-03T07:22:20;3.80;99.90
18974;DHT22;9621;48.690;9.466;2023-04-03T07:24:47;3.80;99.90
18974;DHT22;9621;48.690;9.466;2023-04-03T07:27:14;4.00;99.90
18974;DHT22;9621;48.690;9.466;2023-04-03T07:29:41;3.90;99.90
18974;DHT22;9621;48.690;9.466;2023-04-03T07:32:08;4.10;99.90
18974;DHT22;9621;48.690;9.466;2023-04-03T07:34:37;4.20;99.90
18974;DHT22;9621;48.690;9.466;2023-04-03T07:37:03;4.20;99.90
18974;DHT22;9621;48.690;9.466;2023-04-03T07:39:32;4.40;99.90
18974;DHT22;9621;48.690;9.466;2023-04-03T07:41:59;4.40;99.90
18974;DHT22;9621;48.690;9.466;2023-04-03T07:44:26;4.50;99.90
18974;DHT22;9621;48.690;9.466;2023-04-03T07:46:53;4.60;99.90
18974;DHT22;9621;48.690;9.466;2023-04-03T07:49:21;4.70;99.90
18974;DHT22;9621;48.690;9.466;2023-04-03T07:51:50;4.90;99.90
18974;DHT22;9621;48.690;9.466;2023-04-03T07:54:16;5.00;99.90
18974;DHT22;9621;48.690;9.466;2023-04-03T07:56:43;5.20;99.90
18974;DHT22;9621;48.690;9.466;2023-04-03T07:59:10;5.20;99.90
18974;DHT22;9621;48.690;9.466;2023-04-03T08:01:37;5.20;99.90
18974;DHT22;9621;48.690;9.466;2023-04-03T08:04:04;5.20;99.90
18974;DHT22;9621;48.690;9.466;2023-04-03T08:06:32;5.20;99.90
18974;DHT22;9621;48.690;9.466;2023-04-03T08:09:02;5.30;99.90
18974;DHT22;9621;48.690;9.466;2023-04-03T08:11:31;5.40;99.90
18974;DHT22;9621;48.690;9.466;2023-04-03T08:13:58;5.40;99.90
18974;DHT22;9621;48.690;9.466;2023-04-03T08:16:25;5.50;99.90
18974;DHT22;9621;48.690;9.466;2023-04-03T08:18:53;5.60;99.90
18974;DHT22;9621;48.690;9.466;2023-04-03T08:21:20;5.70;99.90
18974;DHT22;9621;48.690;9.466;2023-04-03T08:23:48;5.90;99.90
18974;DHT22;9621;48.690;9.466;2023-04-03T08:26:19;6.00;99.90
18974;DHT22;9621;48.690;9.466;2023-04-03T08:28:48;6.20;99.90
18974;DHT22;9621;48.690;9.466;2023-04-03T08:31:17;6.20;99.90
18974;DHT22;9621;48.690;9.466;2023-04-03T08:33:45;6.30;99.90
18974;DHT22;9621;48.690;9.466;2023-04-03T08:36:20;6.30;99.90
18974;DHT22;9621;48.690;9.466;2023-04-03T08:38:47;6.30;99.90
18974;DHT22;9621;48.690;9.466;2023-04-03T08:41:19;6.30;99.90
18974;DHT22;9621;48.690;9.466;2023-04-03T08:44:03;6.40;99.90
18974;DHT22;9621;48.690;9.466;2023-04-03T08:46:40;6.40;99.90
18974;DHT22;9621;48.690;9.466;2023-04-03T08:49:13;6.40;99.40
18974;DHT22;9621;48.690;9.466;2023-04-03T08:51:46;6.40;99.90
18974;DHT22;9621;48.690;9.466;2023-04-03T08:54:21;6.40;99.90
18974;DHT22;9621;48.690;9.466;2023-04-03T08:56:51;6.40;99.90
18974;DHT22;9621;48.690;9.466;2023-04-03T08:59:25;6.40;99.90
18974;DHT22;9621;48.690;9.466;2023-04-03T09:01:54;6.50;99.90
18974;DHT22;9621;48.690;9.466;2023-04-03T09:04:22;6.60;99.90
18974;DHT22;9621;48.690;9.466;2023-04-03T09:06:54;6.70;99.90
18974;DHT22;9621;48.690;9.466;2023-04-03T09:09:31;6.80;99.90
18974;DHT22;9621;48.690;9.466;2023-04-03T09:12:06;7.00;99.00
18974;DHT22;9621;48.690;9.466;2023-04-03T09:14:39;7.00;99.90
18974;DHT22;9621;48.690;9.466;2023-04-03T09:17:14;7.00;99.90
18974;DHT22;9621;48.690;9.466;2023-04-03T09:19:49;7.00;99.90
18974;DHT22;9621;48.690;9.466;2023-04-03T09:22:21;7.10;97.70
18974;DHT22;9621;48.690;9.466;2023-04-03T09:24:55;7.20;99.90
18974;DHT22;9621;48.690;9.466;2023-04-03T09:27:24;7.50;99.90
18974;DHT22;9621;48.690;9.466;2023-04-03T09:29:53;7.70;99.90
18974;DHT22;9621;48.690;9.466;2023-04-03T09:32:26;8.00;99.90
18974;DHT22;9621;48.690;9.466;2023-04-03T09:34:54;8.20;99.90
18974;DHT22;9621;48.690;9.466;2023-04-03T09:37:35;8.30;99.90
18974;DHT22;9621;48.690;9.466;2023-04-03T09:40:04;8.30;95.60
18974;DHT22;9621;48.690;9.466;2023-04-03T09:42:32;8.20;96.60
18974;DHT22;9621;48.690;9.466;2023-04-03T09:45:01;8.10;99.80
18974;DHT22;9621;48.690;9.466;2023-04-03T09:47:30;8.10;98.70
18974;DHT22;9621;48.690;9.466;2023-04-03T09:50:19;8.00;97.40
18974;DHT22;9621;48.690;9.466;2023-04-03T09:52:48;7.90;93.90
18974;DHT22;9621;48.690;9.466;2023-04-03T09:55:17;7.80;99.10
18974;DHT22;9621;48.690;9.466;2023-04-03T09:57:46;7.80;98.20
18974;DHT22;9621;48.690;9.466;2023-04-03T10:00:22;7.70;95.20
18974;DHT22;9621;48.690;9.466;2023-04-03T10:02:51;7.60;96.10
18974;DHT22;9621;48.690;9.466;2023-04-03T10:05:31;7.50;99.90
18974;DHT22;9621;48.690;9.466;2023-04-03T10:08:11;7.50;98.40
18974;DHT22;9621;48.690;9.466;2023-04-03T10:10:38;7.30;97.60
18974;DHT22;9621;48.690;9.466;2023-04-03T10:13:11;7.30;99.90
18974;DHT22;9621;48.690;9.466;2023-04-03T10:15:41;7.20;97.20
18974;DHT22;9621;48.690;9.466;2023-04-03T10:18:25;7.10;99.90
18974;DHT22;9621;48.690;9.466;2023-04-03T10:20:58;7.10;94.00
18974;DHT22;9621;48.690;9.466;2023-04-03T10:23:30;7.10;98.80
18974;DHT22;9621;48.690;9.466;2023-04-03T10:26:02;7.10;97.30
18974;DHT22;9621;48.690;9.466;2023-04-03T10:28:43;7.10;94.60
18974;DHT22;9621;48.690;9.466;2023-04-03T10:31:17;6.90;93.80
18974;DHT22;9621;48.690;9.466;2023-04-03T10:33:53;6.90;96.50
18974;DHT22;9621;48.690;9.466;2023-04-03T10:36:29;6.80;96.40
18974;DHT22;9621;48.690;9.466;2023-04-03T10:39:04;6.80;96.70
18974;DHT22;9621;48.690;9.466;2023-04-03T10:41:46;6.70;99.40
18974;DHT22;9621;48.690;9.466;2023-04-03T10:44:27;6.70;97.70
18974;DHT22;9621;48.690;9.466;2023-04-03T10:47:03;6.60;95.90
18974;DHT22;9621;48.690;9.466;2023-04-03T10:49:43;6.60;97.00
18974;DHT22;9621;48.690;9.466;2023-04-03T10:52:19;6.70;95.10
18974;DHT22;9621;48.690;9.466;2023-04-03T10:54:56;6.80;95.50
18974;DHT22;9621;48.690;9.466;2023-04-03T10:57:26;6.70;95.90
18974;DHT22;9621;48.690;9.466;2023-04-03T10:59:59;6.70;97.50
18974;DHT22;9621;48.690;9.466;2023-04-03T11:02:28;6.80;97.10
18974;DHT22;9621;48.690;9.466;2023-04-03T11:04:59;6.80;95.30
18974;DHT22;9621;48.690;9.466;2023-04-03T11:07:29;6.80;96.50
18974;DHT22;9621;48.690;9.466;2023-04-03T11:10:02;6.80;97.90
18974;DHT22;9621;48.690;9.466;2023-04-03T11:12:36;6.70;95.40
18974;DHT22;9621;48.690;9.466;2023-04-03T11:15:11;6.70;93.50
18974;DHT22;9621;48.690;9.466;2023-04-03T11:17:43;6.70;92.30
18974;DHT22;9621;48.690;9.466;2023-04-03T11:20:17;6.70;94.10
18974;DHT22;9621;48.690;9.466;2023-04-03T11:22:48;6.60;92.10
18974;DHT22;9621;48.690;9.466;2023-04-03T11:25:20;6.50;92.60
18974;DHT22;9621;48.690;9.466;2023-04-03T11:27:53;6.40;93.50
18974;DHT22;9621;48.690;9.466;2023-04-03T11:30:27;6.40;94.80
18974;DHT22;9621;48.690;9.466;2023-04-03T11:33:33;6.30;94.20
18974;DHT22;9621;48.690;9.466;2023-04-03T11:36:06;6.20;90.00
18974;DHT22;9621;48.690;9.466;2023-04-03T11:38:36;6.10;94.00
18974;DHT22;9621;48.690;9.466;2023-04-03T11:41:07;6.00;94.90
18974;DHT22;9621;48.690;9.466;2023-04-03T11:43:41;5.90;94.70
18974;DHT22;9621;48.690;9.466;2023-04-03T11:46:09;5.90;91.90
18974;DHT22;9621;48.690;9.466;2023-04-03T11:48:50;5.90;94.70
18974;DHT22;9621;48.690;9.466;2023-04-03T11:51:42;6.00;93.10
18974;DHT22;9621;48.690;9.466;2023-04-03T12:00:47;6.40;94.20
18974;DHT22;9621;48.690;9.466;2023-04-03T12:09:26;7.10;95.90
18974;DHT22;9621;48.690;9.466;2023-04-03T12:11:55;7.20;97.50
18974;DHT22;9621;48.690;9.466;2023-04-03T12:14:24;7.30;98.50
18974;DHT22;9621;48.690;9.466;2023-04-03T12:16:52;7.20;96.00
18974;DHT22;9621;48.690;9.466;2023-04-03T12:19:34;7.10;95.40
18974;DHT22;9621;48.690;9.466;2023-04-03T12:22:14;7.00;89.00
18974;DHT22;9621;48.690;9.466;2023-04-03T12:24:45;7.00;93.10
18974;DHT22;9621;48.690;9.466;2023-04-03T12:27:28;6.90;91.10
18974;DHT22;9621;48.690;9.466;2023-04-03T12:30:12;7.00;93.00
18974;DHT22;9621;48.690;9.466;2023-04-03T12:32:51;7.00;94.20
18974;DHT22;9621;48.690;9.466;2023-04-03T12:35:26;7.10;96.00
18974;DHT22;9621;48.690;9.466;2023-04-03T12:41:21;7.60;94.50
18974;DHT22;9621;48.690;9.466;2023-04-03T12:44:04;7.70;96.60
18974;DHT22;9621;48.690;9.466;2023-04-03T12:46:36;7.90;95.00
18974;DHT22;9621;48.690;9.466;2023-04-03T12:49:14;7.90;96.80
18974;DHT22;9621;48.690;9.466;2023-04-03T12:51:47;8.00;95.70
18974;DHT22;9621;48.690;9.466;2023-04-03T12:54:16;8.00;97.30
18974;DHT22;9621;48.690;9.466;2023-04-03T12:56:46;8.00;94.40
18974;DHT22;9621;48.690;9.466;2023-04-03T12:59:15;7.90;94.30
18974;DHT22;9621;48.690;9.466;2023-04-03T13:01:43;7.80;93.10
18974;DHT22;9621;48.690;9.466;2023-04-03T13:04:11;7.90;94.00
18974;DHT22;9621;48.690;9.466;2023-04-03T13:06:40;7.70;93.20
18974;DHT22;9621;48.690;9.466;2023-04-03T13:09:19;7.70;92.30
18974;DHT22;9621;48.690;9.466;2023-04-03T13:11:51;7.60;88.10
18974;DHT22;9621;48.690;9.466;2023-04-03T13:14:21;7.60;92.90
18974;DHT22;9621;48.690;9.466;2023-04-03T13:16:55;7.60;94.30
18974;DHT22;9621;48.690;9.466;2023-04-03T13:19:23;7.60;88.80
18974;DHT22;9621;48.690;9.466;2023-04-03T13:21:57;7.60;93.70
18974;DHT22;9621;48.690;9.466;2023-04-03T13:24:26;7.50;90.50
18974;DHT22;9621;48.690;9.466;2023-04-03T13:26:55;7.40;92.60
18974;DHT22;9621;48.690;9.466;2023-04-03T13:29:27;7.40;91.80
18974;DHT22;9621;48.690;9.466;2023-04-03T13:31:55;7.30;92.80
18974;DHT22;9621;48.690;9.466;2023-04-03T13:34:25;7.30;93.40
18974;DHT22;9621;48.690;9.466;2023-04-03T13:36:57;7.20;92.60
18974;DHT22;9621;48.690;9.466;2023-04-03T13:39:27;7.30;92.50
18974;DHT22;9621;48.690;9.466;2023-04-03T13:41:57;7.40;95.80
18974;DHT22;9621;48.690;9.466;2023-04-03T13:44:31;7.60;95.30
18974;DHT22;9621;48.690;9.466;2023-04-03T13:47:00;7.90;95.10
18974;DHT22;9621;48.690;9.466;2023-04-03T13:49:32;8.10;96.70
18974;DHT22;9621;48.690;9.466;2023-04-03T13:52:01;8.30;96.10
18974;DHT22;9621;48.690;9.466;2023-04-03T13:54:32;8.60;97.90
18974;DHT22;9621;48.690;9.466;2023-04-03T13:57:01;8.80;91.30
18974;DHT22;9621;48.690;9.466;2023-04-03T13:59:30;8.70;90.80
18974;DHT22;9621;48.690;9.466;2023-04-03T14:02:13;8.60;92.70
18974;DHT22;9621;48.690;9.466;2023-04-03T14:04:50;8.50;90.30
18974;DHT22;9621;48.690;9.466;2023-04-03T14:07:19;8.30;91.20
18974;DHT22;9621;48.690;9.466;2023-04-03T14:09:47;8.20;92.00
18974;DHT22;9621;48.690;9.466;2023-04-03T14:12:18;8.10;92.80
18974;DHT22;9621;48.690;9.466;2023-04-03T14:14:45;8.00;90.70
18974;DHT22;9621;48.690;9.466;2023-04-03T14:17:15;8.00;91.60
18974;DHT22;9621;48.690;9.466;2023-04-03T14:19:43;8.00;87.60
18974;DHT22;9621;48.690;9.466;2023-04-03T14:22:15;8.00;90.50
18974;DHT22;9621;48.690;9.466;2023-04-03T14:24:42;8.00;92.80
18974;DHT22;9621;48.690;9.466;2023-04-03T14:27:16;8.30;94.90
18974;DHT22;9621;48.690;9.466;2023-04-03T14:29:44;8.40;90.20
18974;DHT22;9621;48.690;9.466;2023-04-03T14:32:12;8.30;93.30
18974;DHT22;9621;48.690;9.466;2023-04-03T14:34:41;8.30;87.60
18974;DHT22;9621;48.690;9.466;2023-04-03T14:37:11;8.10;87.30
18974;DHT22;9621;48.690;9.466;2023-04-03T14:39:38;7.90;84.20
18974;DHT22;9621;48.690;9.466;2023-04-03T14:42:06;7.70;90.70
18974;DHT22;9621;48.690;9.466;2023-04-03T14:44:34;7.50;90.80
18974;DHT22;9621;48.690;9.466;2023-04-03T14:47:01;7.40;91.20
18974;DHT22;9621;48.690;9.466;2023-04-03T14:49:29;7.30;91.60
18974;DHT22;9621;48.690;9.466;2023-04-03T14:51:56;7.20;92.80
18974;DHT22;9621;48.690;9.466;2023-04-03T14:54:24;7.10;93.00
18974;DHT22;9621;48.690;9.466;2023-04-03T14:56:53;7.10;91.90
18974;DHT22;9621;48.690;9.466;2023-04-03T14:59:22;7.00;93.90
18974;DHT22;9621;48.690;9.466;2023-04-03T15:01:50;7.00;94.00
18974;DHT22;9621;48.690;9.466;2023-04-03T15:04:19;7.00;90.80
18974;DHT22;9621;48.690;9.466;2023-04-03T15:06:47;7.10;91.00
18974;DHT22;9621;48.690;9.466;2023-04-03T15:09:20;6.90;91.50
18974;DHT22;9621;48.690;9.466;2023-04-03T15:11:48;6.90;89.40
18974;DHT22;9621;48.690;9.466;2023-04-03T15:14:16;6.90;93.60
18974;DHT22;9621;48.690;9.466;2023-04-03T15:16:43;7.10;93.50
18974;DHT22;9621;48.690;9.466;2023-04-03T15:19:12;7.00;94.00
18974;DHT22;9621;48.690;9.466;2023-04-03T15:21:39;7.10;92.90
18974;DHT22;9621;48.690;9.466;2023-04-03T15:24:06;7.10;91.90
18974;DHT22;9621;48.690;9.466;2023-04-03T15:26:33;7.00;89.10
18974;DHT22;9621;48.690;9.466;2023-04-03T15:29:00;6.90;86.20
18974;DHT22;9621;48.690;9.466;2023-04-03T15:31:27;6.70;87.10
18974;DHT22;9621;48.690;9.466;2023-04-03T15:33:54;6.60;90.00
18974;DHT22;9621;48.690;9.466;2023-04-03T15:36:23;6.60;90.60
18974;DHT22;9621;48.690;9.466;2023-04-03T15:38:50;6.50;90.60
18974;DHT22;9621;48.690;9.466;2023-04-03T15:41:17;6.40;92.30
18974;DHT22;9621;48.690;9.466;2023-04-03T15:43:44;6.40;91.20
18974;DHT22;9621;48.690;9.466;2023-04-03T15:46:12;6.40;92.30
18974;DHT22;9621;48.690;9.466;2023-04-03T15:48:40;6.40;90.30
18974;DHT22;9621;48.690;9.466;2023-04-03T15:51:07;6.40;91.10
18974;DHT22;9621;48.690;9.466;2023-04-03T15:53:35;6.50;92.10
18974;DHT22;9621;48.690;9.466;2023-04-03T15:56:02;6.40;92.20
18974;DHT22;9621;48.690;9.466;2023-04-03T15:58:30;6.40;92.50
18974;DHT22;9621;48.690;9.466;2023-04-03T16:00:57;6.40;92.90
18974;DHT22;9621;48.690;9.466;2023-04-03T16:03:24;6.40;93.30
18974;DHT22;9621;48.690;9.466;2023-04-03T16:05:51;6.30;93.50
18974;DHT22;9621;48.690;9.466;2023-04-03T16:08:19;6.30;92.10
18974;DHT22;9621;48.690;9.466;2023-04-03T16:10:47;6.20;93.00
18974;DHT22;9621;48.690;9.466;2023-04-03T16:13:15;6.10;91.60
18974;DHT22;9621;48.690;9.466;2023-04-03T16:15:42;6.10;91.60
18974;DHT22;9621;48.690;9.466;2023-04-03T16:18:09;6.00;92.50
18974;DHT22;9621;48.690;9.466;2023-04-03T16:20:39;5.90;93.00
18974;DHT22;9621;48.690;9.466;2023-04-03T16:23:05;5.80;93.10
18974;DHT22;9621;48.690;9.466;2023-04-03T16:25:32;5.80;93.70
18974;DHT22;9621;48.690;9.466;2023-04-03T16:28:01;5.80;93.60
18974;DHT22;9621;48.690;9.466;2023-04-03T16:30:28;5.80;93.30
18974;DHT22;9621;48.690;9.466;2023-04-03T16:32:55;5.80;93.80